sensor_id;sensor_type;location;lat;lon;timestamp;temperature;humidity
8002;DHT22;4046;48.774;8.732;2023-04-25T00:00:18;20.80;83.10
8002;DHT22;4046;48.774;8.732;2023-04-25T00:02:44;20.70;83.00
8002;DHT22;4046;48.774;8.732;2023-04-25T00:05:12;20.80;83.10
8002;DHT22;4046;48.774;8.732;2023-04-25T00:07:41;20.70;83.00
8002;DHT22;4046;48.774;8.732;2023-04-25T00:10:09;20.80;83.10
8002;DHT22;4046;48.774;8.732;2023-04-25T00:12:37;20.80;83.10
8002;DHT22;4046;48.774;8.732;2023-04-25T00:15:04;20.80;83.10
8002;DHT22;4046;48.774;8.732;2023-04-25T00:17:30;20.80;83.00
8002;DHT22;4046;48.774;8.732;2023-04-25T00:19:57;20.80;83.10
8002;DHT22;4046;48.774;8.732;2023-04-25T00:22:24;20.80;83.00
8002;DHT22;4046;48.774;8.732;2023-04-25T00:24:50;20.80;83.00
8002;DHT22;4046;48.774;8.732;2023-04-25T00:27:16;20.80;83.00
8002;DHT22;4046;48.774;8.732;2023-04-25T00:29:43;20.80;82.90
8002;DHT22;4046;48.774;8.732;2023-04-25T00:32:09;20.80;83.00
8002;DHT22;4046;48.774;8.732;2023-04-25T00:34:35;20.80;83.00
8002;DHT22;4046;48.774;8.732;2023-04-25T00:37:02;20.80;83.00
8002;DHT22;4046;48.774;8.732;2023-04-25T00:39:28;20.80;83.00
8002;DHT22;4046;48.774;8.732;2023-04-25T00:41:54;20.80;83.00
8002;DHT22;4046;48.774;8.732;2023-04-25T00:44:21;20.80;83.70
8002;DHT22;4046;48.774;8.732;2023-04-25T00:46:48;20.80;83.00
8002;DHT22;4046;48.774;8.732;2023-04-25T00:49:17;20.80;83.00
8002;DHT22;4046;48.774;8.732;2023-04-25T00:51:44;20.80;82.90
8002;DHT22;4046;48.774;8.732;2023-04-25T00:54:12;20.80;82.90
8002;DHT22;4046;48.774;8.732;2023-04-25T00:56:38;20.80;82.90
8002;DHT22;4046;48.774;8.732;2023-04-25T00:59:05;20.80;82.90
8002;DHT22;4046;48.774;8.732;2023-04-25T01:01:32;20.80;82.90
8002;DHT22;4046;48.774;8.732;2023-04-25T01:03:59;20.80;83.70
8002;DHT22;4046;48.774;8.732;2023-04-25T01:06:25;20.80;82.80
8002;DHT22;4046;48.774;8.732;2023-04-25T01:08:51;20.80;82.80
8002;DHT22;4046;48.774;8.732;2023-04-25T01:11:17;20.80;82.80
8002;DHT22;4046;48.774;8.732;2023-04-25T01:13:44;20.80;82.90
8002;DHT22;4046;48.774;8.732;2023-04-25T01:16:10;20.70;82.80
8002;DHT22;4046;48.774;8.732;2023-04-25T01:18:38;20.80;82.80
8002;DHT22;4046;48.774;8.732;2023-04-25T01:21:10;20.80;82.80
8002;DHT22;4046;48.774;8.732;2023-04-25T01:23:40;20.80;82.80
8002;DHT22;4046;48.774;8.732;2023-04-25T01:26:09;20.80;82.80
8002;DHT22;4046;48.774;8.732;2023-04-25T01:28:37;20.80;83.60
8002;DHT22;4046;48.774;8.732;2023-04-25T01:31:04;20.80;82.80
8002;DHT22;4046;48.774;8.732;2023-04-25T01:33:31;20.80;82.80
8002;DHT22;4046;48.774;8.732;2023-04-25T01:35:58;20.80;82.80
8002;DHT22;4046;48.774;8.732;2023-04-25T01:38:24;20.80;82.80
8002;DHT22;4046;48.774;8.732;2023-04-25T01:40:51;20.80;82.80
8002;DHT22;4046;48.774;8.732;2023-04-25T01:43:18;20.80;82.80
8002;DHT22;4046;48.774;8.732;2023-04-25T01:45:44;20.80;82.70
8002;DHT22;4046;48.774;8.732;2023-04-25T01:48:12;20.80;82.70
8002;DHT22;4046;48.774;8.732;2023-04-25T01:50:40;20.80;82.70
8002;DHT22;4046;48.774;8.732;2023-04-25T01:53:06;20.80;82.70
8002;DHT22;4046;48.774;8.732;2023-04-25T01:55:34;20.80;82.70
8002;DHT22;4046;48.774;8.732;2023-04-25T01:58:02;20.80;82.70
8002;DHT22;4046;48.774;8.732;2023-04-25T02:00:29;20.80;82.70
8002;DHT22;4046;48.774;8.732;2023-04-25T02:02:58;20.80;82.70
8002;DHT22;4046;48.774;8.732;2023-04-25T02:05:24;20.80;82.70
8002;DHT22;4046;48.774;8.732;2023-04-25T02:07:50;20.80;82.70
8002;DHT22;4046;48.774;8.732;2023-04-25T02:10:16;20.70;82.70
8002;DHT22;4046;48.774;8.732;2023-04-25T02:12:43;20.70;82.60
8002;DHT22;4046;48.774;8.732;2023-04-25T02:15:09;20.80;82.70
8002;DHT22;4046;48.774;8.732;2023-04-25T02:17:36;20.70;82.60
8002;DHT22;4046;48.774;8.732;2023-04-25T02:20:02;20.70;82.70
8002;DHT22;4046;48.774;8.732;2023-04-25T02:22:29;20.70;82.60
8002;DHT22;4046;48.774;8.732;2023-04-25T02:24:56;20.70;82.60
8002;DHT22;4046;48.774;8.732;2023-04-25T02:27:22;20.70;82.50
8002;DHT22;4046;48.774;8.732;2023-04-25T02:29:49;20.80;82.60
8002;DHT22;4046;48.774;8.732;2023-04-25T02:32:15;20.70;82.50
8002;DHT22;4046;48.774;8.732;2023-04-25T02:34:41;20.80;82.60
8002;DHT22;4046;48.774;8.732;2023-04-25T02:37:07;20.70;82.50
8002;DHT22;4046;48.774;8.732;2023-04-25T02:39:34;20.70;82.50
8002;DHT22;4046;48.774;8.732;2023-04-25T02:42:00;20.70;82.50
8002;DHT22;4046;48.774;8.732;2023-04-25T02:44:27;20.70;82.50
8002;DHT22;4046;48.774;8.732;2023-04-25T02:46:53;20.70;82.50
8002;DHT22;4046;48.774;8.732;2023-04-25T02:49:19;20.70;82.50
8002;DHT22;4046;48.774;8.732;2023-04-25T02:51:45;20.70;82.50
8002;DHT22;4046;48.774;8.732;2023-04-25T02:54:12;20.70;82.50
8002;DHT22;4046;48.774;8.732;2023-04-25T02:56:38;20.70;82.50
8002;DHT22;4046;48.774;8.732;2023-04-25T02:59:04;20.70;82.50
8002;DHT22;4046;48.774;8.732;2023-04-25T03:01:30;20.80;82.50
8002;DHT22;4046;48.774;8.732;2023-04-25T03:03:56;20.70;82.50
8002;DHT22;4046;48.774;8.732;2023-04-25T03:06:23;20.70;82.60
8002;DHT22;4046;48.774;8.732;2023-04-25T03:08:49;20.70;82.40
8002;DHT22;4046;48.774;8.732;2023-04-25T03:11:15;20.70;82.40
8002;DHT22;4046;48.774;8.732;2023-04-25T03:13:42;20.80;82.50
8002;DHT22;4046;48.774;8.732;2023-04-25T03:16:08;20.70;82.40
8002;DHT22;4046;48.774;8.732;2023-04-25T03:18:34;20.70;82.40
8002;DHT22;4046;48.774;8.732;2023-04-25T03:21:00;20.70;82.40
8002;DHT22;4046;48.774;8.732;2023-04-25T03:23:27;20.80;82.50
8002;DHT22;4046;48.774;8.732;2023-04-25T03:25:53;20.70;82.40
8002;DHT22;4046;48.774;8.732;2023-04-25T03:28:19;20.70;82.40
8002;DHT22;4046;48.774;8.732;2023-04-25T03:30:46;20.70;82.40
8002;DHT22;4046;48.774;8.732;2023-04-25T03:33:12;20.70;82.40
8002;DHT22;4046;48.774;8.732;2023-04-25T03:35:38;20.80;82.40
8002;DHT22;4046;48.774;8.732;2023-04-25T03:38:05;20.80;82.40
8002;DHT22;4046;48.774;8.732;2023-04-25T03:40:31;20.80;82.40
8002;DHT22;4046;48.774;8.732;2023-04-25T03:42:57;20.80;82.40
8002;DHT22;4046;48.774;8.732;2023-04-25T03:45:23;20.80;82.30
8002;DHT22;4046;48.774;8.732;2023-04-25T03:47:49;20.80;82.30
8002;DHT22;4046;48.774;8.732;2023-04-25T03:50:16;20.80;82.30
8002;DHT22;4046;48.774;8.732;2023-04-25T03:52:43;20.70;82.20
8002;DHT22;4046;48.774;8.732;2023-04-25T03:55:09;20.70;82.20
8002;DHT22;4046;48.774;8.732;2023-04-25T03:57:36;20.70;82.20
8002;DHT22;4046;48.774;8.732;2023-04-25T04:00:03;20.70;82.20
8002;DHT22;4046;48.774;8.732;2023-04-25T04:02:30;20.70;82.20
8002;DHT22;4046;48.774;8.732;2023-04-25T04:04:56;20.70;82.20
8002;DHT22;4046;48.774;8.732;2023-04-25T04:07:22;20.70;82.20
8002;DHT22;4046;48.774;8.732;2023-04-25T04:09:48;20.70;82.20
8002;DHT22;4046;48.774;8.732;2023-04-25T04:12:15;20.70;82.20
8002;DHT22;4046;48.774;8.732;2023-04-25T04:14:41;20.70;82.10
8002;DHT22;4046;48.774;8.732;2023-04-25T04:17:07;20.70;82.10
8002;DHT22;4046;48.774;8.732;2023-04-25T04:19:33;20.70;82.10
8002;DHT22;4046;48.774;8.732;2023-04-25T04:22:00;20.70;82.10
8002;DHT22;4046;48.774;8.732;2023-04-25T04:24:27;20.70;82.10
8002;DHT22;4046;48.774;8.732;2023-04-25T04:26:53;20.70;82.10
8002;DHT22;4046;48.774;8.732;2023-04-25T04:29:20;20.70;82.10
8002;DHT22;4046;48.774;8.732;2023-04-25T04:31:49;20.70;82.10
8002;DHT22;4046;48.774;8.732;2023-04-25T04:34:17;20.70;82.10
8002;DHT22;4046;48.774;8.732;2023-04-25T04:36:45;20.70;82.10
8002;DHT22;4046;48.774;8.732;2023-04-25T04:39:12;20.70;82.00
8002;DHT22;4046;48.774;8.732;2023-04-25T04:41:39;20.80;82.00
8002;DHT22;4046;48.774;8.732;2023-04-25T04:44:05;20.80;82.00
8002;DHT22;4046;48.774;8.732;2023-04-25T04:46:32;20.80;82.00
8002;DHT22;4046;48.774;8.732;2023-04-25T04:49:05;20.80;82.00
8002;DHT22;4046;48.774;8.732;2023-04-25T04:51:31;20.80;82.00
8002;DHT22;4046;48.774;8.732;2023-04-25T04:53:58;20.80;82.00
8002;DHT22;4046;48.774;8.732;2023-04-25T04:56:29;20.70;81.90
8002;DHT22;4046;48.774;8.732;2023-04-25T04:59:00;20.70;81.90
8002;DHT22;4046;48.774;8.732;2023-04-25T05:01:27;20.70;81.90
8002;DHT22;4046;48.774;8.732;2023-04-25T05:03:55;20.70;81.90
8002;DHT22;4046;48.774;8.732;2023-04-25T05:06:27;20.70;81.90
8002;DHT22;4046;48.774;8.732;2023-04-25T05:08:53;20.70;81.90
8002;DHT22;4046;48.774;8.732;2023-04-25T05:11:19;20.70;82.00
8002;DHT22;4046;48.774;8.732;2023-04-25T05:13:46;20.70;81.90
8002;DHT22;4046;48.774;8.732;2023-04-25T05:16:13;20.70;81.90
8002;DHT22;4046;48.774;8.732;2023-04-25T05:18:40;20.70;81.80
8002;DHT22;4046;48.774;8.732;2023-04-25T05:21:06;20.80;81.90
8002;DHT22;4046;48.774;8.732;2023-04-25T05:23:35;20.80;81.90
8002;DHT22;4046;48.774;8.732;2023-04-25T05:26:01;20.70;81.80
8002;DHT22;4046;48.774;8.732;2023-04-25T05:28:27;20.70;81.90
8002;DHT22;4046;48.774;8.732;2023-04-25T05:30:53;20.70;81.90
8002;DHT22;4046;48.774;8.732;2023-04-25T05:33:20;20.70;81.90
8002;DHT22;4046;48.774;8.732;2023-04-25T05:35:46;20.70;81.90
8002;DHT22;4046;48.774;8.732;2023-04-25T05:38:12;20.70;81.80
8002;DHT22;4046;48.774;8.732;2023-04-25T05:40:39;20.70;81.80
8002;DHT22;4046;48.774;8.732;2023-04-25T05:43:05;20.70;81.80
8002;DHT22;4046;48.774;8.732;2023-04-25T05:45:31;20.70;81.80
8002;DHT22;4046;48.774;8.732;2023-04-25T05:47:57;20.80;81.90
8002;DHT22;4046;48.774;8.732;2023-04-25T05:50:24;20.80;81.90
8002;DHT22;4046;48.774;8.732;2023-04-25T05:52:50;20.80;81.90
8002;DHT22;4046;48.774;8.732;2023-04-25T05:55:17;20.80;81.80
8002;DHT22;4046;48.774;8.732;2023-04-25T05:57:43;20.80;81.80
8002;DHT22;4046;48.774;8.732;2023-04-25T06:00:13;20.80;81.80
8002;DHT22;4046;48.774;8.732;2023-04-25T06:02:41;20.70;81.80
8002;DHT22;4046;48.774;8.732;2023-04-25T06:05:08;20.70;81.80
8002;DHT22;4046;48.774;8.732;2023-04-25T06:07:34;20.70;81.80
8002;DHT22;4046;48.774;8.732;2023-04-25T06:10:00;20.70;81.80
8002;DHT22;4046;48.774;8.732;2023-04-25T06:12:27;20.70;81.80
8002;DHT22;4046;48.774;8.732;2023-04-25T06:14:55;20.70;81.80
8002;DHT22;4046;48.774;8.732;2023-04-25T06:17:21;20.70;81.80
8002;DHT22;4046;48.774;8.732;2023-04-25T06:19:48;20.70;81.80
8002;DHT22;4046;48.774;8.732;2023-04-25T06:22:14;20.70;81.80
8002;DHT22;4046;48.774;8.732;2023-04-25T06:24:40;20.70;81.80
8002;DHT22;4046;48.774;8.732;2023-04-25T06:27:07;20.70;81.90
8002;DHT22;4046;48.774;8.732;2023-04-25T06:29:39;20.70;81.80
8002;DHT22;4046;48.774;8.732;2023-04-25T06:32:05;20.70;81.80
8002;DHT22;4046;48.774;8.732;2023-04-25T06:34:32;20.70;81.80
8002;DHT22;4046;48.774;8.732;2023-04-25T06:36:58;20.70;81.80
8002;DHT22;4046;48.774;8.732;2023-04-25T06:39:24;20.70;81.80
8002;DHT22;4046;48.774;8.732;2023-04-25T06:41:51;20.70;81.80
8002;DHT22;4046;48.774;8.732;2023-04-25T06:44:17;20.70;81.80
8002;DHT22;4046;48.774;8.732;2023-04-25T06:46:43;20.70;81.80
8002;DHT22;4046;48.774;8.732;2023-04-25T06:49:10;20.70;81.80
8002;DHT22;4046;48.774;8.732;2023-04-25T06:51:36;20.70;81.70
8002;DHT22;4046;48.774;8.732;2023-04-25T06:54:02;20.70;81.80
8002;DHT22;4046;48.774;8.732;2023-04-25T06:56:30;20.70;81.80
8002;DHT22;4046;48.774;8.732;2023-04-25T06:58:57;20.70;81.70
8002;DHT22;4046;48.774;8.732;2023-04-25T07:01:23;20.70;81.80
8002;DHT22;4046;48.774;8.732;2023-04-25T07:03:49;20.70;81.80
8002;DHT22;4046;48.774;8.732;2023-04-25T07:06:15;20.70;81.80
8002;DHT22;4046;48.774;8.732;2023-04-25T07:08:42;20.70;81.80
8002;DHT22;4046;48.774;8.732;2023-04-25T07:11:08;20.70;81.80
8002;DHT22;4046;48.774;8.732;2023-04-25T07:13:34;20.70;81.80
8002;DHT22;4046;48.774;8.732;2023-04-25T07:16:00;20.70;81.80
8002;DHT22;4046;48.774;8.732;2023-04-25T07:18:27;20.70;81.80
8002;DHT22;4046;48.774;8.732;2023-04-25T07:20:53;20.70;81.70
8002;DHT22;4046;48.774;8.732;2023-04-25T07:23:19;20.70;81.70
8002;DHT22;4046;48.774;8.732;2023-04-25T07:25:46;20.70;81.70
8002;DHT22;4046;48.774;8.732;2023-04-25T07:28:12;20.70;81.70
8002;DHT22;4046;48.774;8.732;2023-04-25T07:30:39;20.70;81.70
8002;DHT22;4046;48.774;8.732;2023-04-25T07:33:05;20.70;81.70
8002;DHT22;4046;48.774;8.732;2023-04-25T07:35:31;20.70;81.70
8002;DHT22;4046;48.774;8.732;2023-04-25T07:37:57;20.70;81.70
8002;DHT22;4046;48.774;8.732;2023-04-25T07:40:25;20.70;81.70
8002;DHT22;4046;48.774;8.732;2023-04-25T07:42:51;20.70;81.70
8002;DHT22;4046;48.774;8.732;2023-04-25T07:45:17;20.70;81.70
8002;DHT22;4046;48.774;8.732;2023-04-25T07:47:43;20.70;81.60
8002;DHT22;4046;48.774;8.732;2023-04-25T07:50:10;20.70;81.70
8002;DHT22;4046;48.774;8.732;2023-04-25T07:52:37;20.70;81.80
8002;DHT22;4046;48.774;8.732;2023-04-25T07:55:03;20.60;81.70
8002;DHT22;4046;48.774;8.732;2023-04-25T07:57:30;20.60;81.80
8002;DHT22;4046;48.774;8.732;2023-04-25T07:59:56;20.60;81.80
8002;DHT22;4046;48.774;8.732;2023-04-25T08:02:23;20.50;81.80
8002;DHT22;4046;48.774;8.732;2023-04-25T08:04:49;20.50;81.90
8002;DHT22;4046;48.774;8.732;2023-04-25T08:07:15;20.40;82.00
8002;DHT22;4046;48.774;8.732;2023-04-25T08:09:42;20.40;82.00
8002;DHT22;4046;48.774;8.732;2023-04-25T08:12:08;20.40;82.00
8002;DHT22;4046;48.774;8.732;2023-04-25T08:14:34;20.40;82.00
8002;DHT22;4046;48.774;8.732;2023-04-25T08:17:05;20.40;82.00
8002;DHT22;4046;48.774;8.732;2023-04-25T08:19:31;20.40;82.00
8002;DHT22;4046;48.774;8.732;2023-04-25T08:21:58;20.40;82.00
8002;DHT22;4046;48.774;8.732;2023-04-25T08:24:24;20.40;82.00
8002;DHT22;4046;48.774;8.732;2023-04-25T08:26:51;20.40;82.00
8002;DHT22;4046;48.774;8.732;2023-04-25T08:29:17;20.40;82.00
8002;DHT22;4046;48.774;8.732;2023-04-25T08:31:44;20.40;81.90
8002;DHT22;4046;48.774;8.732;2023-04-25T08:34:10;20.30;81.90
8002;DHT22;4046;48.774;8.732;2023-04-25T08:36:37;20.30;82.00
8002;DHT22;4046;48.774;8.732;2023-04-25T08:39:03;20.30;82.00
8002;DHT22;4046;48.774;8.732;2023-04-25T08:41:30;20.30;82.00
8002;DHT22;4046;48.774;8.732;2023-04-25T08:43:56;20.30;82.00
8002;DHT22;4046;48.774;8.732;2023-04-25T08:46:26;20.30;82.00
8002;DHT22;4046;48.774;8.732;2023-04-25T08:48:53;20.30;82.00
8002;DHT22;4046;48.774;8.732;2023-04-25T08:51:22;20.30;82.00
8002;DHT22;4046;48.774;8.732;2023-04-25T08:53:51;20.30;82.10
8002;DHT22;4046;48.774;8.732;2023-04-25T08:56:18;20.30;82.10
8002;DHT22;4046;48.774;8.732;2023-04-25T08:58:48;20.30;82.10
8002;DHT22;4046;48.774;8.732;2023-04-25T09:01:16;20.30;82.00
8002;DHT22;4046;48.774;8.732;2023-04-25T09:03:44;20.30;82.00
8002;DHT22;4046;48.774;8.732;2023-04-25T09:06:11;20.20;81.90
8002;DHT22;4046;48.774;8.732;2023-04-25T09:08:37;20.20;82.00
8002;DHT22;4046;48.774;8.732;2023-04-25T09:11:07;20.20;82.00
8002;DHT22;4046;48.774;8.732;2023-04-25T09:13:33;20.20;81.90
8002;DHT22;4046;48.774;8.732;2023-04-25T09:15:59;20.20;82.00
8002;DHT22;4046;48.774;8.732;2023-04-25T09:18:28;20.20;82.00
8002;DHT22;4046;48.774;8.732;2023-04-25T09:20:57;20.20;81.90
8002;DHT22;4046;48.774;8.732;2023-04-25T09:23:24;20.20;81.90
8002;DHT22;4046;48.774;8.732;2023-04-25T09:25:52;20.20;81.90
8002;DHT22;4046;48.774;8.732;2023-04-25T09:28:23;20.20;81.90
8002;DHT22;4046;48.774;8.732;2023-04-25T09:30:55;20.20;81.90
8002;DHT22;4046;48.774;8.732;2023-04-25T09:33:27;20.20;81.90
8002;DHT22;4046;48.774;8.732;2023-04-25T09:36:03;20.20;81.90
8002;DHT22;4046;48.774;8.732;2023-04-25T09:38:42;20.20;81.90
8002;DHT22;4046;48.774;8.732;2023-04-25T09:41:09;20.20;81.80
8002;DHT22;4046;48.774;8.732;2023-04-25T09:43:37;20.20;81.90
8002;DHT22;4046;48.774;8.732;2023-04-25T09:46:08;20.20;81.90
8002;DHT22;4046;48.774;8.732;2023-04-25T09:48:34;20.20;81.90
8002;DHT22;4046;48.774;8.732;2023-04-25T09:51:09;20.20;81.90
8002;DHT22;4046;48.774;8.732;2023-04-25T09:53:39;20.20;81.90
8002;DHT22;4046;48.774;8.732;2023-04-25T09:56:08;20.20;81.80
8002;DHT22;4046;48.774;8.732;2023-04-25T09:58:36;20.20;81.80
8002;DHT22;4046;48.774;8.732;2023-04-25T10:01:10;20.20;81.90
8002;DHT22;4046;48.774;8.732;2023-04-25T10:03:38;20.20;81.80
8002;DHT22;4046;48.774;8.732;2023-04-25T10:06:14;20.20;81.80
8002;DHT22;4046;48.774;8.732;2023-04-25T10:08:44;20.20;81.80
8002;DHT22;4046;48.774;8.732;2023-04-25T10:11:10;20.20;81.90
8002;DHT22;4046;48.774;8.732;2023-04-25T10:13:40;20.20;81.80
8002;DHT22;4046;48.774;8.732;2023-04-25T10:16:08;20.20;81.80
8002;DHT22;4046;48.774;8.732;2023-04-25T10:18:34;20.20;81.80
8002;DHT22;4046;48.774;8.732;2023-04-25T10:21:05;20.20;81.80
8002;DHT22;4046;48.774;8.732;2023-04-25T10:23:32;20.20;81.70
8002;DHT22;4046;48.774;8.732;2023-04-25T10:26:00;20.20;81.70
8002;DHT22;4046;48.774;8.732;2023-04-25T10:28:27;20.20;82.50
8002;DHT22;4046;48.774;8.732;2023-04-25T10:30:58;20.20;81.60
8002;DHT22;4046;48.774;8.732;2023-04-25T10:33:39;20.20;81.60
8002;DHT22;4046;48.774;8.732;2023-04-25T10:36:13;20.30;81.70
8002;DHT22;4046;48.774;8.732;2023-04-25T10:38:42;20.30;81.70
8002;DHT22;4046;48.774;8.732;2023-04-25T10:41:10;20.30;81.60
8002;DHT22;4046;48.774;8.732;2023-04-25T10:43:42;20.30;81.70
8002;DHT22;4046;48.774;8.732;2023-04-25T10:46:26;20.20;81.60
8002;DHT22;4046;48.774;8.732;2023-04-25T10:49:00;20.20;81.60
8002;DHT22;4046;48.774;8.732;2023-04-25T10:51:27;20.20;81.60
8002;DHT22;4046;48.774;8.732;2023-04-25T10:53:59;20.20;81.60
8002;DHT22;4046;48.774;8.732;2023-04-25T10:56:28;20.20;82.40
8002;DHT22;4046;48.774;8.732;2023-04-25T11:01:38;20.20;81.70
8002;DHT22;4046;48.774;8.732;2023-04-25T11:04:04;20.20;81.70
8002;DHT22;4046;48.774;8.732;2023-04-25T11:06:47;20.10;81.60
8002;DHT22;4046;48.774;8.732;2023-04-25T11:09:17;20.10;81.80
8002;DHT22;4046;48.774;8.732;2023-04-25T11:11:56;20.10;81.70
8002;DHT22;4046;48.774;8.732;2023-04-25T11:14:22;20.10;81.70
8002;DHT22;4046;48.774;8.732;2023-04-25T11:16:58;20.10;81.70
8002;DHT22;4046;48.774;8.732;2023-04-25T11:19:25;20.10;81.70
8002;DHT22;4046;48.774;8.732;2023-04-25T11:21:56;20.10;81.70
8002;DHT22;4046;48.774;8.732;2023-04-25T11:24:27;20.10;81.70
8002;DHT22;4046;48.774;8.732;2023-04-25T11:26:54;20.10;81.70
8002;DHT22;4046;48.774;8.732;2023-04-25T11:29:26;20.10;81.80
8002;DHT22;4046;48.774;8.732;2023-04-25T11:31:54;20.10;81.80
8002;DHT22;4046;48.774;8.732;2023-04-25T11:34:22;20.10;81.80
8002;DHT22;4046;48.774;8.732;2023-04-25T11:36:49;20.10;81.80
8002;DHT22;4046;48.774;8.732;2023-04-25T11:39:15;20.10;81.80
8002;DHT22;4046;48.774;8.732;2023-04-25T11:41:42;20.10;81.70
8002;DHT22;4046;48.774;8.732;2023-04-25T11:44:08;20.20;81.70
8002;DHT22;4046;48.774;8.732;2023-04-25T11:46:34;20.10;81.60
8002;DHT22;4046;48.774;8.732;2023-04-25T11:49:01;20.10;81.60
8002;DHT22;4046;48.774;8.732;2023-04-25T11:51:27;20.10;81.60
8002;DHT22;4046;48.774;8.732;2023-04-25T11:53:54;20.10;81.60
8002;DHT22;4046;48.774;8.732;2023-04-25T11:56:20;20.10;81.60
8002;DHT22;4046;48.774;8.732;2023-04-25T11:58:57;20.10;81.60
8002;DHT22;4046;48.774;8.732;2023-04-25T12:01:34;20.10;81.60
8002;DHT22;4046;48.774;8.732;2023-04-25T12:06:43;20.10;81.60
8002;DHT22;4046;48.774;8.732;2023-04-25T12:09:11;20.10;81.60
8002;DHT22;4046;48.774;8.732;2023-04-25T12:11:46;20.10;81.60
8002;DHT22;4046;48.774;8.732;2023-04-25T12:14:30;20.10;81.60
8002;DHT22;4046;48.774;8.732;2023-04-25T12:16:58;20.20;81.60
8002;DHT22;4046;48.774;8.732;2023-04-25T12:19:25;20.20;81.50
8002;DHT22;4046;48.774;8.732;2023-04-25T12:21:52;20.30;81.50
8002;DHT22;4046;48.774;8.732;2023-04-25T12:24:24;20.40;81.30
8002;DHT22;4046;48.774;8.732;2023-04-25T12:29:29;20.50;81.10
8002;DHT22;4046;48.774;8.732;2023-04-25T12:31:55;20.50;81.10
8002;DHT22;4046;48.774;8.732;2023-04-25T12:34:23;20.40;81.10
8002;DHT22;4046;48.774;8.732;2023-04-25T12:36:50;20.40;81.20
8002;DHT22;4046;48.774;8.732;2023-04-25T12:41:46;20.40;81.30
8002;DHT22;4046;48.774;8.732;2023-04-25T12:44:13;20.40;81.30
8002;DHT22;4046;48.774;8.732;2023-04-25T12:46:40;20.40;81.30
8002;DHT22;4046;48.774;8.732;2023-04-25T12:49:09;20.30;81.20
8002;DHT22;4046;48.774;8.732;2023-04-25T12:51:36;20.30;81.30
8002;DHT22;4046;48.774;8.732;2023-04-25T12:54:04;20.30;81.30
8002;DHT22;4046;48.774;8.732;2023-04-25T12:56:31;20.30;81.40
8002;DHT22;4046;48.774;8.732;2023-04-25T12:58:58;20.20;81.30
8002;DHT22;4046;48.774;8.732;2023-04-25T13:01:25;20.20;81.30
8002;DHT22;4046;48.774;8.732;2023-04-25T13:03:52;20.30;81.50
8002;DHT22;4046;48.774;8.732;2023-04-25T13:06:20;20.30;81.40
8002;DHT22;4046;48.774;8.732;2023-04-25T13:08:46;20.30;81.40
8002;DHT22;4046;48.774;8.732;2023-04-25T13:11:12;20.30;82.10
8002;DHT22;4046;48.774;8.732;2023-04-25T13:13:41;20.30;81.30
8002;DHT22;4046;48.774;8.732;2023-04-25T13:16:07;20.30;81.30
8002;DHT22;4046;48.774;8.732;2023-04-25T13:18:35;20.30;81.20
8002;DHT22;4046;48.774;8.732;2023-04-25T13:21:01;20.30;81.20
8002;DHT22;4046;48.774;8.732;2023-04-25T13:23:28;20.30;81.20
8002;DHT22;4046;48.774;8.732;2023-04-25T13:25:55;20.30;81.20
8002;DHT22;4046;48.774;8.732;2023-04-25T13:28:24;20.30;82.00
8002;DHT22;4046;48.774;8.732;2023-04-25T13:30:51;20.30;81.30
8002;DHT22;4046;48.774;8.732;2023-04-25T13:33:18;20.20;81.30
8002;DHT22;4046;48.774;8.732;2023-04-25T13:35:44;20.30;81.40
8002;DHT22;4046;48.774;8.732;2023-04-25T13:38:21;20.20;81.30
8002;DHT22;4046;48.774;8.732;2023-04-25T13:40:48;20.30;81.30
8002;DHT22;4046;48.774;8.732;2023-04-25T13:43:15;20.20;81.20
8002;DHT22;4046;48.774;8.732;2023-04-25T13:45:49;20.20;81.30
8002;DHT22;4046;48.774;8.732;2023-04-25T13:48:15;20.30;81.30
8002;DHT22;4046;48.774;8.732;2023-04-25T13:50:41;20.30;81.30
8002;DHT22;4046;48.774;8.732;2023-04-25T13:53:08;20.30;81.20
8002;DHT22;4046;48.774;8.732;2023-04-25T13:55:43;20.30;81.10
8002;DHT22;4046;48.774;8.732;2023-04-25T13:58:10;20.30;81.10
8002;DHT22;4046;48.774;8.732;2023-04-25T14:00:37;20.30;81.10
8002;DHT22;4046;48.774;8.732;2023-04-25T14:03:09;20.30;81.10
8002;DHT22;4046;48.774;8.732;2023-04-25T14:05:36;20.30;81.10
8002;DHT22;4046;48.774;8.732;2023-04-25T14:08:07;20.30;81.10
8002;DHT22;4046;48.774;8.732;2023-04-25T14:10:34;20.30;81.10
8002;DHT22;4046;48.774;8.732;2023-04-25T14:13:01;20.40;81.20
8002;DHT22;4046;48.774;8.732;2023-04-25T14:15:30;20.40;81.20
8002;DHT22;4046;48.774;8.732;2023-04-25T14:17:57;20.40;81.10
8002;DHT22;4046;48.774;8.732;2023-04-25T14:20:23;20.30;81.00
8002;DHT22;4046;48.774;8.732;2023-04-25T14:22:49;20.40;81.10
8002;DHT22;4046;48.774;8.732;2023-04-25T14:25:16;20.40;81.10
8002;DHT22;4046;48.774;8.732;2023-04-25T14:27:42;20.40;81.10
8002;DHT22;4046;48.774;8.732;2023-04-25T14:30:09;20.40;81.10
8002;DHT22;4046;48.774;8.732;2023-04-25T14:32:38;20.40;81.10
8002;DHT22;4046;48.774;8.732;2023-04-25T14:35:04;20.40;81.10
8002;DHT22;4046;48.774;8.732;2023-04-25T14:37:31;20.40;81.00
8002;DHT22;4046;48.774;8.732;2023-04-25T14:39:57;20.40;81.00
8002;DHT22;4046;48.774;8.732;2023-04-25T14:42:24;20.40;81.00
8002;DHT22;4046;48.774;8.732;2023-04-25T14:44:50;20.40;81.00
8002;DHT22;4046;48.774;8.732;2023-04-25T14:47:17;20.40;81.00
8002;DHT22;4046;48.774;8.732;2023-04-25T14:49:43;20.30;81.00
8002;DHT22;4046;48.774;8.732;2023-04-25T14:52:10;20.30;81.10
8002;DHT22;4046;48.774;8.732;2023-04-25T14:54:36;20.30;81.10
8002;DHT22;4046;48.774;8.732;2023-04-25T14:57:03;20.30;81.10
8002;DHT22;4046;48.774;8.732;2023-04-25T14:59:29;20.30;81.10
8002;DHT22;4046;48.774;8.732;2023-04-25T15:01:55;20.30;81.10
8002;DHT22;4046;48.774;8.732;2023-04-25T15:04:22;20.30;81.10
8002;DHT22;4046;48.774;8.732;2023-04-25T15:06:49;20.30;81.10
8002;DHT22;4046;48.774;8.732;2023-04-25T15:09:15;20.30;81.10
8002;DHT22;4046;48.774;8.732;2023-04-25T15:11:42;20.20;81.10
8002;DHT22;4046;48.774;8.732;2023-04-25T15:14:08;20.30;81.20
8002;DHT22;4046;48.774;8.732;2023-04-25T15:16:35;20.20;81.10
8002;DHT22;4046;48.774;8.732;2023-04-25T15:19:01;20.20;81.20
8002;DHT22;4046;48.774;8.732;2023-04-25T15:21:30;20.20;81.20
8002;DHT22;4046;48.774;8.732;2023-04-25T15:23:57;20.20;81.20
8002;DHT22;4046;48.774;8.732;2023-04-25T15:26:23;20.20;81.30
8002;DHT22;4046;48.774;8.732;2023-04-25T15:28:49;20.20;81.30
8002;DHT22;4046;48.774;8.732;2023-04-25T15:31:16;20.20;81.30
8002;DHT22;4046;48.774;8.732;2023-04-25T15:33:42;20.20;81.30
8002;DHT22;4046;48.774;8.732;2023-04-25T15:36:09;20.20;81.30
8002;DHT22;4046;48.774;8.732;2023-04-25T15:38:36;20.20;81.30
8002;DHT22;4046;48.774;8.732;2023-04-25T15:41:02;20.10;81.20
8002;DHT22;4046;48.774;8.732;2023-04-25T15:43:28;20.10;81.20
8002;DHT22;4046;48.774;8.732;2023-04-25T15:45:55;20.10;81.30
8002;DHT22;4046;48.774;8.732;2023-04-25T15:48:21;20.10;81.30
8002;DHT22;4046;48.774;8.732;2023-04-25T15:50:47;20.10;81.30
8002;DHT22;4046;48.774;8.732;2023-04-25T15:53:14;20.10;81.30
8002;DHT22;4046;48.774;8.732;2023-04-25T15:55:40;20.10;81.30
8002;DHT22;4046;48.774;8.732;2023-04-25T15:58:07;20.10;81.20
8002;DHT22;4046;48.774;8.732;2023-04-25T16:00:33;20.10;81.30
8002;DHT22;4046;48.774;8.732;2023-04-25T16:03:01;20.10;81.40
8002;DHT22;4046;48.774;8.732;2023-04-25T16:05:28;20.10;81.30
8002;DHT22;4046;48.774;8.732;2023-04-25T16:07:54;20.10;81.30
8002;DHT22;4046;48.774;8.732;2023-04-25T16:10:20;20.10;81.30
8002;DHT22;4046;48.774;8.732;2023-04-25T16:12:48;20.10;81.30